createdAt,value
2018-03-14T00:01:01.737Z,3.90
2018-03-14T00:03:29.641Z,4.20
2018-03-14T00:05:58.020Z,3.80
2018-03-14T00:08:25.925Z,3.60
2018-03-14T00:10:53.832Z,3.67
2018-03-14T00:13:21.760Z,3.93
2018-03-14T00:15:49.680Z,3.90
2018-03-14T00:18:17.600Z,4.10
2018-03-14T00:20:45.557Z,4.40
2018-03-14T00:23:13.605Z,4.23
2018-03-14T00:25:41.528Z,4.97
2018-03-14T00:28:09.464Z,5.00
2018-03-14T00:30:37.396Z,4.53
2018-03-14T00:33:05.324Z,5.57
2018-03-14T00:35:33.228Z,5.50
2018-03-14T00:38:01.152Z,6.03
2018-03-14T00:40:29.065Z,5.97
2018-03-14T00:42:56.976Z,5.60
2018-03-14T00:45:24.884Z,6.10
2018-03-14T00:47:52.815Z,5.40
2018-03-14T00:50:21.169Z,5.67
2018-03-14T00:52:49.084Z,4.80
2018-03-14T00:55:16.984Z,6.10
2018-03-14T00:57:44.909Z,6.07
2018-03-14T01:00:12.869Z,5.30
2018-03-14T01:02:40.801Z,5.60
2018-03-14T01:05:08.725Z,5.10
2018-03-14T01:07:36.636Z,6.30
2018-03-14T01:10:04.573Z,4.90
2018-03-14T01:12:32.501Z,4.60
2018-03-14T01:15:00.413Z,4.80
2018-03-14T01:17:28.324Z,4.77
2018-03-14T01:19:56.245Z,5.83
2018-03-14T01:22:24.160Z,5.40
2018-03-14T01:24:52.082Z,4.73
2018-03-14T01:27:19.996Z,4.60
2018-03-14T01:29:48.481Z,4.63
2018-03-14T01:32:16.404Z,5.30
2018-03-14T01:34:44.316Z,4.40
2018-03-14T01:37:12.237Z,4.80
2018-03-14T01:39:40.152Z,4.27
2018-03-14T01:42:08.064Z,4.50
2018-03-14T01:44:35.972Z,4.20
2018-03-14T01:47:03.892Z,5.07
2018-03-14T01:49:31.824Z,4.10
2018-03-14T01:51:59.748Z,4.30
2018-03-14T01:54:28.052Z,4.50
2018-03-14T01:56:55.960Z,5.20
2018-03-14T01:59:23.872Z,4.90
2018-03-14T02:01:51.799Z,5.00
2018-03-14T02:04:19.712Z,3.90
2018-03-14T02:06:47.636Z,4.80
2018-03-14T02:09:15.552Z,3.87
2018-03-14T02:11:50.535Z,5.00
2018-03-14T02:14:18.463Z,4.70
2018-03-14T02:16:46.375Z,4.73
2018-03-14T02:19:14.290Z,4.50
2018-03-14T02:21:42.228Z,4.17
2018-03-14T02:24:10.136Z,3.93
2018-03-14T02:26:38.053Z,4.10
2018-03-14T02:29:07.325Z,4.07
2018-03-14T02:31:35.261Z,3.20
2018-03-14T02:34:03.179Z,3.27
2018-03-14T02:36:43.445Z,4.00
2018-03-14T02:39:11.354Z,4.40
2018-03-14T02:41:39.256Z,3.53
2018-03-14T02:44:07.160Z,3.50
2018-03-14T02:46:35.067Z,3.73
2018-03-14T02:49:09.878Z,3.73
2018-03-14T02:51:37.804Z,3.70
2018-03-14T02:54:05.715Z,4.37
2018-03-14T02:56:33.604Z,3.63
2018-03-14T02:59:01.492Z,3.70
2018-03-14T03:01:29.424Z,4.37
2018-03-14T03:03:57.319Z,3.90
2018-03-14T03:06:25.223Z,3.87
2018-03-14T03:08:53.717Z,3.73
2018-03-14T03:11:21.621Z,3.53
2018-03-14T03:13:49.524Z,5.10
2018-03-14T03:16:17.446Z,3.93
2018-03-14T03:18:45.368Z,3.90
2018-03-14T03:23:57.213Z,3.80
2018-03-14T03:26:25.117Z,3.30
2018-03-14T03:28:53.043Z,5.40
2018-03-14T03:31:20.949Z,4.83
2018-03-14T03:33:48.861Z,4.23
2018-03-14T03:36:16.781Z,4.03
2018-03-14T03:38:44.696Z,4.33
2018-03-14T03:41:12.620Z,4.30
2018-03-14T03:43:40.558Z,4.57
2018-03-14T03:46:08.472Z,3.97
2018-03-14T03:48:36.376Z,4.10
2018-03-14T03:51:04.284Z,4.00
2018-03-14T03:53:32.192Z,3.90
2018-03-14T03:56:00.094Z,3.87
2018-03-14T03:58:28.000Z,4.00
2018-03-14T04:00:55.927Z,3.90
2018-03-14T04:03:23.824Z,3.83
2018-03-14T04:05:52.243Z,3.37
2018-03-14T04:08:20.156Z,3.87
2018-03-14T04:10:48.468Z,3.83
2018-03-14T04:13:16.401Z,3.10
2018-03-14T04:15:44.317Z,3.03
2018-03-14T04:18:12.207Z,3.57
2018-03-14T04:20:40.105Z,4.17
2018-03-14T04:23:08.004Z,3.50
2018-03-14T04:25:35.917Z,3.50
2018-03-14T04:28:03.829Z,2.83
2018-03-14T04:30:31.752Z,2.93
2018-03-14T04:32:59.668Z,2.80
2018-03-14T04:35:27.577Z,2.70
2018-03-14T04:37:55.501Z,3.77
2018-03-14T04:40:23.440Z,2.90
2018-03-14T04:42:51.340Z,3.07
2018-03-14T04:45:19.231Z,2.20
2018-03-14T04:47:47.128Z,2.10
2018-03-14T04:50:15.020Z,2.83
2018-03-14T04:52:42.951Z,2.87
2018-03-14T04:55:11.288Z,3.37
2018-03-14T04:57:39.250Z,3.37
2018-03-14T05:00:07.162Z,2.50
2018-03-14T05:02:35.070Z,3.07
2018-03-14T05:05:02.968Z,2.90
2018-03-14T05:07:30.896Z,2.87
2018-03-14T05:09:58.802Z,2.60
2018-03-14T05:12:26.705Z,2.53
2018-03-14T05:14:54.631Z,2.50
2018-03-14T05:17:22.542Z,2.80
2018-03-14T05:19:50.452Z,2.73
2018-03-14T05:22:18.853Z,2.63
2018-03-14T05:24:46.762Z,3.03
2018-03-14T05:27:14.686Z,2.00
2018-03-14T05:29:42.592Z,2.67
2018-03-14T05:32:10.517Z,3.40
2018-03-14T05:34:38.423Z,2.17
2018-03-14T05:37:06.326Z,2.03
2018-03-14T05:39:34.237Z,2.60
2018-03-14T05:42:02.148Z,2.30
2018-03-14T05:44:30.048Z,2.30
2018-03-14T05:46:57.947Z,2.50
2018-03-14T05:49:25.839Z,2.33
2018-03-14T05:51:53.741Z,2.47
2018-03-14T05:54:22.141Z,2.27
2018-03-14T05:56:50.041Z,2.73
2018-03-14T05:59:17.944Z,3.13
2018-03-14T06:01:45.857Z,2.67
2018-03-14T06:04:13.780Z,3.30
2018-03-14T06:06:41.731Z,2.83
2018-03-14T06:09:09.632Z,2.50
2018-03-14T06:11:37.529Z,4.27
2018-03-14T06:14:05.434Z,2.63
2018-03-14T06:16:33.335Z,3.00
2018-03-14T06:19:01.244Z,2.60
2018-03-14T06:21:29.172Z,2.80
2018-03-14T06:23:57.069Z,3.17
2018-03-14T06:26:24.984Z,3.10
2018-03-14T06:28:52.876Z,2.23
2018-03-14T06:31:20.792Z,3.20
2018-03-14T06:33:48.699Z,3.70
2018-03-14T06:36:16.619Z,3.60
2018-03-14T06:38:44.530Z,3.20
2018-03-14T06:41:12.428Z,2.70
2018-03-14T06:43:40.336Z,3.20
2018-03-14T06:46:08.236Z,3.47
2018-03-14T06:48:36.122Z,3.90
2018-03-14T06:51:04.433Z,4.10
2018-03-14T06:53:39.351Z,3.40
2018-03-14T06:56:07.288Z,2.90
2018-03-14T06:58:47.378Z,3.97
2018-03-14T07:04:30.544Z,4.63
2018-03-14T07:06:59.096Z,4.70
2018-03-14T07:09:27.020Z,3.97
2018-03-14T07:11:54.985Z,3.73
2018-03-14T07:14:22.852Z,3.30
2018-03-14T07:16:50.745Z,3.80
2018-03-14T07:19:18.652Z,4.03
2018-03-14T07:21:46.558Z,4.03
2018-03-14T07:24:14.464Z,4.63
2018-03-14T07:26:42.362Z,5.10
2018-03-14T07:29:10.608Z,5.47
2018-03-14T07:31:38.509Z,4.60
2018-03-14T07:34:06.404Z,6.03
2018-03-14T07:36:34.294Z,5.37
2018-03-14T07:39:02.241Z,5.63
2018-03-14T07:41:30.149Z,5.50
2018-03-14T07:43:58.043Z,5.73
2018-03-14T07:46:25.948Z,6.10
2018-03-14T07:48:53.876Z,5.87
2018-03-14T07:51:21.788Z,6.50
2018-03-14T07:53:49.689Z,6.13
2018-03-14T07:56:17.584Z,6.60
2018-03-14T07:58:45.481Z,5.60
2018-03-14T08:01:13.420Z,6.27
2018-03-14T08:03:41.337Z,7.57
2018-03-14T08:06:09.254Z,6.97
2018-03-14T08:08:37.158Z,6.60
2018-03-14T08:11:05.064Z,6.70
2018-03-14T08:13:33.052Z,6.17
2018-03-14T08:16:00.893Z,6.43
2018-03-14T08:18:29.076Z,6.27
2018-03-14T08:20:56.976Z,6.77
2018-03-14T08:23:24.875Z,6.20
2018-03-14T08:25:52.801Z,6.80
2018-03-14T08:28:20.705Z,6.53
2018-03-14T08:30:48.671Z,6.43
2018-03-14T08:33:16.545Z,7.20
2018-03-14T08:35:44.445Z,6.10
2018-03-14T08:38:12.360Z,7.03
2018-03-14T08:40:40.272Z,7.00
2018-03-14T08:43:08.184Z,6.80
2018-03-14T08:45:36.091Z,8.00
2018-03-14T08:48:03.997Z,6.60
2018-03-14T08:50:31.893Z,6.80
2018-03-14T08:52:59.796Z,6.90
2018-03-14T08:55:27.706Z,7.07
2018-03-14T08:57:55.618Z,7.13
2018-03-14T09:00:23.740Z,6.87
2018-03-14T09:02:51.639Z,6.90
2018-03-14T09:05:19.541Z,6.50
2018-03-14T09:07:47.446Z,5.13
2018-03-14T09:10:15.359Z,6.50
2018-03-14T09:12:43.268Z,4.90
2018-03-14T09:15:11.176Z,5.33
2018-03-14T09:17:39.066Z,4.90
2018-03-14T09:20:07.220Z,6.37
2018-03-14T09:22:35.124Z,4.77
2018-03-14T09:25:03.048Z,4.70
2018-03-14T09:27:30.949Z,5.07
2018-03-14T09:29:58.856Z,4.10
2018-03-14T09:32:26.761Z,4.30
2018-03-14T09:34:54.665Z,4.00
2018-03-14T09:37:22.568Z,4.00
2018-03-14T09:39:50.461Z,5.20
2018-03-14T09:42:18.371Z,4.70
2018-03-14T09:44:46.272Z,4.50
2018-03-14T09:47:14.172Z,3.53
2018-03-14T09:49:42.089Z,3.50
2018-03-14T09:52:10.368Z,3.87
2018-03-14T09:54:38.278Z,3.57
2018-03-14T09:57:06.192Z,4.50
2018-03-14T09:59:34.092Z,3.60
2018-03-14T10:02:02.009Z,3.33
2018-03-14T10:04:29.912Z,3.63
2018-03-14T10:06:57.833Z,4.40
2018-03-14T10:09:25.720Z,4.17
2018-03-14T10:11:53.616Z,3.00
2018-03-14T10:14:21.528Z,2.83
2018-03-14T10:16:49.436Z,2.90
2018-03-14T10:19:17.635Z,2.80
2018-03-14T10:21:45.534Z,3.33
2018-03-14T10:24:13.465Z,3.47
2018-03-14T10:26:41.412Z,3.13
2018-03-14T10:29:09.376Z,2.27
2018-03-14T10:31:37.233Z,2.80
2018-03-14T10:34:05.161Z,2.70
2018-03-14T10:36:33.068Z,2.57
2018-03-14T10:39:01.002Z,2.80
2018-03-14T10:41:28.913Z,3.03
2018-03-14T10:43:56.839Z,2.93
2018-03-14T10:46:24.744Z,2.47
2018-03-14T10:48:52.652Z,2.10
2018-03-14T10:51:20.556Z,2.73
2018-03-14T10:53:48.460Z,2.60
2018-03-14T10:56:16.369Z,3.10
2018-03-14T10:58:44.270Z,2.40
2018-03-14T11:01:12.189Z,2.43
2018-03-14T11:03:43.984Z,2.60
2018-03-14T11:06:11.888Z,1.67
2018-03-14T11:08:39.797Z,1.40
2018-03-14T11:11:07.737Z,1.63
2018-03-14T11:13:35.640Z,1.33
2018-03-14T11:16:03.545Z,2.17
2018-03-14T11:18:31.436Z,2.23
2018-03-14T11:20:59.712Z,3.00
2018-03-14T11:23:27.646Z,2.03
2018-03-14T11:25:55.553Z,2.00
2018-03-14T11:28:23.482Z,2.30
2018-03-14T11:30:51.389Z,2.00
2018-03-14T11:33:19.296Z,2.03
2018-03-14T11:35:47.200Z,1.90
2018-03-14T11:38:15.301Z,1.93
2018-03-14T11:40:43.232Z,2.27
2018-03-14T11:43:11.137Z,2.47
2018-03-14T11:45:39.066Z,2.30
2018-03-14T11:48:06.991Z,2.93
2018-03-14T11:50:34.884Z,2.40
2018-03-14T11:53:02.791Z,3.67
2018-03-14T11:55:30.705Z,2.20
2018-03-14T11:57:58.604Z,2.70
2018-03-14T12:00:26.518Z,1.90
2018-03-14T12:02:54.424Z,1.83
2018-03-14T12:05:22.333Z,2.30
2018-03-14T12:07:50.237Z,2.20
2018-03-14T12:10:18.190Z,3.00
2018-03-14T12:12:46.072Z,2.00
2018-03-14T12:15:13.986Z,2.20
2018-03-14T12:17:41.892Z,3.03
2018-03-14T12:20:09.804Z,3.57
2018-03-14T12:22:37.724Z,2.87
2018-03-14T12:25:06.000Z,3.27
2018-03-14T12:27:33.904Z,4.67
2018-03-14T12:30:01.809Z,3.23
2018-03-14T12:32:29.704Z,2.43
2018-03-14T12:34:57.600Z,2.83
2018-03-14T12:37:25.509Z,3.40
2018-03-14T12:39:53.413Z,2.97
2018-03-14T12:42:21.340Z,2.90
2018-03-14T12:44:49.240Z,2.70
2018-03-14T12:47:17.140Z,3.00
2018-03-14T12:49:45.051Z,2.93
2018-03-14T12:52:12.953Z,2.37
2018-03-14T12:54:40.862Z,2.57
2018-03-14T12:57:08.808Z,2.40
2018-03-14T12:59:36.685Z,2.27
2018-03-14T13:02:04.592Z,2.90
2018-03-14T13:04:32.497Z,2.77
2018-03-14T13:07:00.852Z,2.77
2018-03-14T13:09:28.765Z,2.77
2018-03-14T13:11:56.669Z,2.73
2018-03-14T13:14:24.577Z,2.13
2018-03-14T13:16:52.502Z,2.30
2018-03-14T13:19:20.420Z,2.80
2018-03-14T13:21:48.316Z,2.50
2018-03-14T13:24:16.536Z,2.53
2018-03-14T13:26:44.445Z,2.40
2018-03-14T13:29:12.349Z,1.97
2018-03-14T13:31:40.264Z,2.20
2018-03-14T13:34:08.169Z,2.27
2018-03-14T13:36:36.084Z,2.87
2018-03-14T13:39:04.025Z,2.20
2018-03-14T13:41:31.925Z,2.70
2018-03-14T13:43:59.833Z,2.70
2018-03-14T13:46:27.745Z,2.43
2018-03-14T13:48:55.643Z,2.27
2018-03-14T13:51:23.552Z,3.03
2018-03-14T13:53:51.465Z,3.13
2018-03-14T13:56:19.380Z,3.50
2018-03-14T13:58:47.277Z,2.13
2018-03-14T14:01:15.179Z,2.00
2018-03-14T14:03:43.080Z,2.63
2018-03-14T14:06:10.987Z,2.90
2018-03-14T14:08:38.909Z,2.47
2018-03-14T14:11:06.821Z,2.80
2018-03-14T14:13:34.719Z,2.40
2018-03-14T14:16:02.636Z,3.10
2018-03-14T14:18:30.565Z,2.43
2018-03-14T14:20:58.486Z,3.00
2018-03-14T14:23:26.701Z,2.40
2018-03-14T14:25:54.612Z,2.70
2018-03-14T14:28:22.505Z,2.60
2018-03-14T14:30:50.424Z,2.40
2018-03-14T14:33:18.389Z,2.90
2018-03-14T14:35:46.267Z,2.30
2018-03-14T14:38:14.172Z,2.20
2018-03-14T14:40:42.081Z,2.27
2018-03-14T14:43:09.986Z,2.60
2018-03-14T14:45:37.883Z,2.33
2018-03-14T14:48:05.798Z,1.70
2018-03-14T14:50:33.733Z,2.40
2018-03-14T14:53:01.641Z,2.00
2018-03-14T14:55:29.546Z,2.33
2018-03-14T14:57:57.437Z,2.50
2018-03-14T15:00:25.345Z,2.10
2018-03-14T15:02:53.257Z,2.80
2018-03-14T15:05:21.180Z,2.17
2018-03-14T15:07:49.083Z,2.57
2018-03-14T15:10:16.972Z,2.73
2018-03-14T15:12:44.860Z,2.60
2018-03-14T15:15:12.767Z,2.53
2018-03-14T15:17:40.668Z,2.83
2018-03-14T15:20:08.597Z,3.30
2018-03-14T15:22:36.914Z,3.43
2018-03-14T15:25:04.816Z,3.03
2018-03-14T15:27:32.724Z,3.30
2018-03-14T15:30:00.619Z,3.00
2018-03-14T15:32:28.521Z,4.73
2018-03-14T15:34:56.429Z,4.00
2018-03-14T15:37:24.348Z,4.83
2018-03-14T15:39:52.701Z,4.23
2018-03-14T15:42:20.611Z,4.47
2018-03-14T15:44:48.534Z,3.27
2018-03-14T15:47:16.448Z,4.00
2018-03-14T15:49:44.365Z,3.30
2018-03-14T15:52:12.346Z,3.57
2018-03-14T15:54:40.252Z,3.33
2018-03-14T15:57:08.164Z,3.80
2018-03-14T15:59:36.073Z,3.47
2018-03-14T16:02:04.018Z,3.70
2018-03-14T16:04:31.923Z,3.40
2018-03-14T16:06:59.826Z,3.50
2018-03-14T16:09:27.729Z,3.90
2018-03-14T16:11:55.625Z,3.87
2018-03-14T16:14:23.529Z,3.37
2018-03-14T16:16:51.449Z,3.27
2018-03-14T16:19:19.505Z,3.20
2018-03-14T16:21:47.400Z,3.07
2018-03-14T16:24:15.332Z,2.60
2018-03-14T16:26:43.241Z,3.53
2018-03-14T16:29:11.140Z,4.00
2018-03-14T16:31:39.045Z,3.30
2018-03-14T16:34:06.954Z,3.53
2018-03-14T16:36:34.867Z,3.83
2018-03-14T16:39:02.816Z,3.30
2018-03-14T16:41:30.715Z,3.53
2018-03-14T16:43:58.616Z,3.23
2018-03-14T16:46:26.532Z,3.33
2018-03-14T16:48:54.630Z,3.87
2018-03-14T16:51:22.528Z,3.17
2018-03-14T16:53:50.440Z,3.00
2018-03-14T16:56:18.342Z,3.30
2018-03-14T16:58:46.249Z,3.27
2018-03-14T17:01:14.158Z,3.90
2018-03-14T17:03:42.064Z,3.97
2018-03-14T17:06:09.976Z,3.10
2018-03-14T17:08:37.880Z,3.13
2018-03-14T17:11:05.809Z,3.47
2018-03-14T17:13:33.728Z,3.80
2018-03-14T17:16:01.629Z,3.70
2018-03-14T17:18:29.547Z,3.73
2018-03-14T17:20:57.502Z,3.90
2018-03-14T17:23:25.412Z,4.90
2018-03-14T17:25:53.422Z,4.70
2018-03-14T17:28:21.253Z,3.83
2018-03-14T17:30:49.193Z,5.43
2018-03-14T17:33:17.084Z,3.80
2018-03-14T17:35:45.297Z,4.70
2018-03-14T17:38:13.196Z,4.30
2018-03-14T17:40:41.097Z,3.60
2018-03-14T17:43:09.036Z,4.50
2018-03-14T17:45:36.944Z,3.90
2018-03-14T17:48:04.849Z,4.70
2018-03-14T17:50:32.757Z,4.40
2018-03-14T17:53:00.661Z,4.87
2018-03-14T17:55:28.583Z,4.17
2018-03-14T17:57:56.942Z,5.70
2018-03-14T18:00:24.845Z,6.73
2018-03-14T18:02:52.765Z,6.47
2018-03-14T18:05:20.669Z,5.93
2018-03-14T18:07:48.658Z,6.90
2018-03-14T18:10:16.586Z,5.90
2018-03-14T18:12:44.482Z,5.90
2018-03-14T18:15:12.448Z,7.30
2018-03-14T18:17:40.357Z,6.03
2018-03-14T18:20:08.279Z,6.00
2018-03-14T18:22:36.213Z,5.90
2018-03-14T18:25:04.445Z,5.73
2018-03-14T18:27:32.357Z,6.13
2018-03-14T18:30:00.275Z,5.77
2018-03-14T18:32:28.192Z,6.50
2018-03-14T18:34:56.088Z,5.43
2018-03-14T18:37:23.989Z,6.70
2018-03-14T18:39:51.896Z,8.40
2018-03-14T18:42:19.809Z,6.67
2018-03-14T18:44:47.717Z,6.80
2018-03-14T18:47:15.633Z,6.37
2018-03-14T18:49:43.568Z,6.50
2018-03-14T18:52:11.801Z,7.57
2018-03-14T18:54:39.741Z,7.03
2018-03-14T18:57:07.653Z,6.87
2018-03-14T18:59:35.573Z,7.33
2018-03-14T19:02:03.497Z,6.87
2018-03-14T19:04:31.405Z,8.13
2018-03-14T19:06:59.300Z,8.27
2018-03-14T19:09:27.212Z,8.67
2018-03-14T19:11:55.124Z,9.23
2018-03-14T19:14:23.041Z,8.00
2018-03-14T19:16:50.957Z,8.60
2018-03-14T19:19:18.862Z,8.73
2018-03-14T19:21:46.764Z,7.70
2018-03-14T19:24:15.270Z,8.33
2018-03-14T19:26:43.196Z,7.97
2018-03-14T19:29:11.091Z,6.90
2018-03-14T19:31:39.005Z,6.93
2018-03-14T19:34:06.904Z,7.47
2018-03-14T19:36:34.835Z,7.67
2018-03-14T19:39:02.810Z,7.87
2018-03-14T19:41:30.708Z,7.50
2018-03-14T19:43:58.628Z,7.90
2018-03-14T19:46:26.538Z,6.73
2018-03-14T19:48:54.449Z,6.70
2018-03-14T19:51:22.361Z,7.80
2018-03-14T19:53:50.269Z,7.30
2018-03-14T19:56:18.170Z,7.87
2018-03-14T19:58:46.416Z,8.23
2018-03-14T20:01:14.324Z,7.27
2018-03-14T20:03:42.249Z,7.70
2018-03-14T20:06:10.160Z,7.97
2018-03-14T20:08:38.073Z,8.23
2018-03-14T20:11:05.980Z,8.93
2018-03-14T20:13:33.906Z,6.50
2018-03-14T20:16:01.820Z,6.70
2018-03-14T20:18:29.737Z,7.60
2018-03-14T20:20:57.688Z,7.13
2018-03-14T20:23:25.603Z,7.23
2018-03-14T20:25:53.532Z,6.80
2018-03-14T20:28:21.724Z,8.10
2018-03-14T20:30:49.641Z,8.00
2018-03-14T20:33:17.572Z,7.87
2018-03-14T20:35:45.464Z,6.87
2018-03-14T20:38:13.414Z,8.30
2018-03-14T20:40:41.331Z,7.50
2018-03-14T20:43:09.232Z,8.27
2018-03-14T20:45:37.149Z,7.50
2018-03-14T20:48:05.048Z,7.47
2018-03-14T20:50:32.972Z,8.47
2018-03-14T20:53:01.336Z,7.10
2018-03-14T20:55:29.228Z,7.90
2018-03-14T20:57:57.139Z,7.93
2018-03-14T21:00:25.044Z,6.70
2018-03-14T21:02:52.953Z,6.90
2018-03-14T21:05:20.856Z,6.90
2018-03-14T21:07:48.768Z,7.53
2018-03-14T21:10:16.676Z,7.20
2018-03-14T21:12:44.565Z,7.40
2018-03-14T21:15:12.506Z,7.90
2018-03-14T21:17:40.449Z,7.37
2018-03-14T21:20:08.687Z,8.13
2018-03-14T21:22:36.600Z,8.30
2018-03-14T21:25:04.508Z,8.10
2018-03-14T21:27:32.424Z,7.03
2018-03-14T21:30:00.330Z,7.97
2018-03-14T21:32:28.243Z,7.47
2018-03-14T21:34:56.145Z,7.97
2018-03-14T21:37:24.053Z,8.10
2018-03-14T21:39:51.989Z,7.53
2018-03-14T21:42:19.893Z,8.30
2018-03-14T21:44:47.806Z,8.10
2018-03-14T21:47:15.708Z,7.53
2018-03-14T21:49:43.624Z,7.57
2018-03-14T21:52:11.520Z,8.30
2018-03-14T21:54:39.432Z,8.80
2018-03-14T21:57:17.500Z,8.00
2018-03-14T21:59:45.440Z,8.37
2018-03-14T22:02:13.353Z,8.00
2018-03-14T22:04:41.258Z,8.37
2018-03-14T22:07:09.620Z,8.63
2018-03-14T22:09:37.553Z,8.07
2018-03-14T22:12:05.534Z,8.53
2018-03-14T22:14:33.373Z,8.50
2018-03-14T22:17:01.278Z,7.90
2018-03-14T22:19:29.201Z,8.30
2018-03-14T22:21:57.097Z,8.63
2018-03-14T22:24:25.510Z,8.17
2018-03-14T22:26:53.441Z,9.10
2018-03-14T22:29:21.352Z,7.63
2018-03-14T22:31:49.281Z,7.93
2018-03-14T22:34:17.197Z,7.43
2018-03-14T22:36:45.096Z,8.83
2018-03-14T22:39:12.996Z,8.63
2018-03-14T22:41:40.904Z,8.10
2018-03-14T22:44:08.821Z,8.57
2018-03-14T22:46:36.732Z,8.90
2018-03-14T22:49:04.644Z,8.37
2018-03-14T22:51:32.972Z,8.97
2018-03-14T22:54:00.888Z,7.97
2018-03-14T22:56:28.781Z,6.83
2018-03-14T22:58:56.700Z,7.70
2018-03-14T23:01:24.604Z,8.80
2018-03-14T23:03:52.494Z,8.00
2018-03-14T23:06:20.396Z,8.20
2018-03-14T23:08:48.297Z,7.93
2018-03-14T23:11:16.201Z,9.20
2018-03-14T23:13:44.103Z,8.67
2018-03-14T23:16:12.013Z,8.60
2018-03-14T23:18:39.925Z,8.33
2018-03-14T23:21:07.847Z,8.30
2018-03-14T23:23:36.149Z,7.53
2018-03-14T23:26:04.074Z,9.07
2018-03-14T23:28:32.000Z,8.53
2018-03-14T23:30:59.923Z,7.20
2018-03-14T23:33:27.836Z,7.83
2018-03-14T23:35:55.746Z,6.80
2018-03-14T23:38:23.676Z,8.13
2018-03-14T23:40:51.597Z,7.83
2018-03-14T23:43:19.497Z,8.50
2018-03-14T23:45:47.400Z,6.90
2018-03-14T23:48:15.297Z,8.33
2018-03-14T23:50:43.212Z,7.17
2018-03-14T23:53:11.581Z,8.13
2018-03-14T23:55:39.483Z,7.70
2018-03-14T23:58:07.393Z,8.07
